Time,TemperatureF,DewpointF,PressureIn,WindDirection,WindDirectionDegrees,WindSpeedMPH,WindSpeedGustMPH,Humidity,HourlyPrecipIn,Conditions,Clouds,dailyrainin,SoftwareType,DateUTC
2013-03-31 00:00:00,33.2,30.9,29.87,WNW,297,0.0,0.0,91,0.00,,---,0.00,VWS V14.00,2013-03-31 05:00:00,
2013-03-31 00:05:00,33.1,30.8,29.86,NW,314,0.0,0.0,91,0.00,,---,0.00,VWS V14.00,2013-03-31 05:05:00,
2013-03-31 00:10:00,33.0,30.7,29.86,NW,307,0.0,2.0,91,0.00,,---,0.00,VWS V14.00,2013-03-31 05:10:00,
2013-03-31 00:15:00,33.0,30.7,29.86,NW,306,0.0,2.0,91,0.00,,---,0.00,VWS V14.00,2013-03-31 05:15:00,
2013-03-31 00:20:00,32.9,30.8,29.86,WNW,291,4.0,8.0,92,0.00,,---,0.00,VWS V14.00,2013-03-31 05:20:00,
2013-03-31 00:25:00,32.9,30.6,29.86,WNW,286,2.0,8.0,91,0.00,,---,0.00,VWS V14.00,2013-03-31 05:25:00,
2013-03-31 00:30:00,32.9,30.8,29.86,WNW,284,0.0,4.0,92,0.00,,---,0.00,VWS V14.00,2013-03-31 05:30:00,
2013-03-31 00:35:00,32.9,30.8,29.86,WNW,282,0.0,5.0,92,0.00,,---,0.00,VWS V14.00,2013-03-31 05:35:00,
2013-03-31 00:40:00,32.9,30.8,29.86,WNW,283,0.0,5.0,92,0.00,,---,0.00,VWS V14.00,2013-03-31 05:40:00,
2013-03-31 00:45:00,32.9,30.8,29.86,NW,304,1.0,5.0,92,0.00,,---,0.00,VWS V14.00,2013-03-31 05:45:00,
2013-03-31 00:50:00,32.9,30.8,29.86,WNW,301,4.0,9.0,92,0.00,,---,0.00,VWS V14.00,2013-03-31 05:50:00,
2013-03-31 00:55:00,33.0,30.9,29.86,NW,310,9.0,11.0,92,0.00,,---,0.00,VWS V14.00,2013-03-31 05:55:00,
2013-03-31 01:00:00,33.1,31.0,29.86,NW,317,3.0,7.0,92,0.00,,---,0.00,VWS V14.00,2013-03-31 06:00:00,
2013-03-31 01:05:00,33.3,31.2,29.86,NW,325,9.0,14.0,92,0.00,,---,0.00,VWS V14.00,2013-03-31 06:05:00,
2013-03-31 01:10:00,33.4,31.3,29.86,NW,304,8.0,15.0,92,0.00,,---,0.00,VWS V14.00,2013-03-31 06:10:00,
2013-03-31 01:15:00,33.4,31.3,29.86,WNW,298,5.0,15.0,92,0.00,,---,0.00,VWS V14.00,2013-03-31 06:15:00,
2013-03-31 01:20:00,33.4,31.3,29.85,NW,309,4.0,15.0,92,0.00,,---,0.00,VWS V14.00,2013-03-31 06:20:00,
2013-03-31 01:25:00,33.3,31.5,29.86,WNW,293,2.0,15.0,93,0.00,,---,0.00,VWS V14.00,2013-03-31 06:25:00,
2013-03-31 01:30:00,33.4,31.6,29.86,NW,307,0.0,11.0,93,0.00,,---,0.00,VWS V14.00,2013-03-31 06:30:00,
2013-03-31 01:35:00,33.3,31.5,29.86,WNW,300,4.0,11.0,93,0.00,,---,0.00,VWS V14.00,2013-03-31 06:35:00,
2013-03-31 01:40:00,33.3,31.5,29.86,NW,307,3.0,11.0,93,0.00,,---,0.00,VWS V14.00,2013-03-31 06:40:00,
2013-03-31 01:45:00,33.3,31.5,29.86,NW,307,4.0,11.0,93,0.00,,---,0.00,VWS V14.00,2013-03-31 06:45:00,
2013-03-31 01:50:00,33.4,31.6,29.86,WNW,296,3.0,11.0,93,0.00,,---,0.00,VWS V14.00,2013-03-31 06:50:00,
2013-03-31 01:55:00,33.4,31.9,29.85,WNW,299,1.0,11.0,94,0.00,,---,0.00,VWS V14.00,2013-03-31 06:55:00,
2013-03-31 02:00:00,33.4,31.9,29.85,WNW,303,0.0,6.0,94,0.00,,---,0.00,VWS V14.00,2013-03-31 07:00:00,
2013-03-31 02:05:00,33.5,32.0,29.85,WNW,285,0.0,6.0,94,0.00,,---,0.00,VWS V14.00,2013-03-31 07:05:00,
2013-03-31 02:10:00,33.5,32.0,29.85,WNW,302,0.0,6.0,94,0.00,,---,0.00,VWS V14.00,2013-03-31 07:10:00,
2013-03-31 02:15:00,33.6,32.1,29.85,West,276,3.0,7.0,94,0.00,,---,0.00,VWS V14.00,2013-03-31 07:15:00,
2013-03-31 02:20:00,33.6,32.1,29.85,West,276,0.0,7.0,94,0.00,,---,0.00,VWS V14.00,2013-03-31 07:20:00,
2013-03-31 02:25:00,33.6,32.1,29.85,West,277,5.0,7.0,94,0.00,,---,0.00,VWS V14.00,2013-03-31 07:25:00,
2013-03-31 02:30:00,33.6,32.1,29.85,West,269,4.0,6.0,94,0.00,,---,0.00,VWS V14.00,2013-03-31 07:30:00,
2013-03-31 02:35:00,33.6,32.1,29.85,West,265,2.0,8.0,94,0.00,,---,0.00,VWS V14.00,2013-03-31 07:35:00,
2013-03-31 02:40:00,33.6,32.1,29.84,WNW,294,2.0,8.0,94,0.00,,---,0.00,VWS V14.00,2013-03-31 07:40:00,
2013-03-31 02:45:00,33.6,32.1,29.84,West,279,3.0,8.0,94,0.00,,---,0.00,VWS V14.00,2013-03-31 07:45:00,
2013-03-31 02:50:00,33.6,32.1,29.84,WNW,289,3.0,10.0,94,0.00,,---,0.00,VWS V14.00,2013-03-31 07:50:00,
2013-03-31 02:55:00,33.6,32.3,29.84,West,273,3.0,10.0,95,0.00,,---,0.00,VWS V14.00,2013-03-31 07:55:00,
2013-03-31 03:00:00,33.7,32.4,29.84,WNW,292,6.0,8.0,95,0.00,,---,0.00,VWS V14.00,2013-03-31 08:00:00,
2013-03-31 03:05:00,33.7,32.4,29.84,West,269,4.0,10.0,95,0.00,,---,0.00,VWS V14.00,2013-03-31 08:05:00,
2013-03-31 03:10:00,33.8,32.5,29.84,WNW,296,4.0,10.0,95,0.00,,---,0.00,VWS V14.00,2013-03-31 08:10:00,
2013-03-31 03:15:00,33.8,32.5,29.84,West,281,6.0,14.0,95,0.00,,---,0.00,VWS V14.00,2013-03-31 08:15:00,
2013-03-31 03:20:00,33.8,32.5,29.84,WNW,294,5.0,14.0,95,0.00,,---,0.00,VWS V14.00,2013-03-31 08:20:00,
2013-03-31 03:25:00,33.8,32.5,29.84,WNW,295,6.0,14.0,95,0.00,,---,0.00,VWS V14.00,2013-03-31 08:25:00,
2013-03-31 03:30:00,33.9,32.6,29.84,WNW,288,2.0,11.0,95,0.00,,---,0.00,VWS V14.00,2013-03-31 08:30:00,
2013-03-31 03:35:00,33.9,32.6,29.83,NW,321,5.0,12.0,95,0.00,,---,0.00,VWS V14.00,2013-03-31 08:35:00,
2013-03-31 03:40:00,33.9,32.6,29.83,WNW,294,10.0,14.0,95,0.00,,---,0.00,VWS V14.00,2013-03-31 08:40:00,
2013-03-31 03:45:00,33.9,32.6,29.83,NW,307,6.0,14.0,95,0.00,,---,0.00,VWS V14.00,2013-03-31 08:45:00,
2013-03-31 03:50:00,33.9,32.6,29.83,NW,311,5.0,14.0,95,0.00,,---,0.00,VWS V14.00,2013-03-31 08:50:00,
2013-03-31 03:55:00,33.9,32.9,29.83,WNW,300,2.0,16.0,96,0.00,,---,0.00,VWS V14.00,2013-03-31 08:55:00,
2013-03-31 04:00:00,33.9,32.6,29.83,WNW,301,2.0,8.0,95,0.00,,---,0.00,VWS V14.00,2013-03-31 09:00:00,
2013-03-31 04:05:00,33.9,32.6,29.83,WNW,298,5.0,8.0,95,0.00,,---,0.00,VWS V14.00,2013-03-31 09:05:00,
2013-03-31 04:10:00,34.0,32.7,29.83,WNW,297,5.0,8.0,95,0.00,,---,0.00,VWS V14.00,2013-03-31 09:10:00,
2013-03-31 04:15:00,34.0,32.7,29.83,WNW,295,2.0,10.0,95,0.00,,---,0.00,VWS V14.00,2013-03-31 09:15:00,
2013-03-31 04:20:00,34.0,32.7,29.83,West,272,2.0,14.0,95,0.00,,---,0.00,VWS V14.00,2013-03-31 09:20:00,
2013-03-31 04:25:00,34.0,32.7,29.82,WNW,299,3.0,14.0,95,0.00,,---,0.00,VWS V14.00,2013-03-31 09:25:00,
2013-03-31 04:30:00,33.9,32.6,29.82,West,261,3.0,10.0,95,0.00,,---,0.00,VWS V14.00,2013-03-31 09:30:00,
2013-03-31 04:35:00,33.9,32.6,29.82,NW,311,4.0,14.0,95,0.00,,---,0.00,VWS V14.00,2013-03-31 09:35:00,
2013-03-31 04:40:00,34.0,32.5,29.82,WNW,299,2.0,14.0,94,0.00,,---,0.00,VWS V14.00,2013-03-31 09:40:00,
2013-03-31 04:45:00,33.9,32.4,29.82,West,270,4.0,14.0,94,0.00,,---,0.00,VWS V14.00,2013-03-31 09:45:00,
2013-03-31 04:50:00,33.9,32.4,29.81,WNW,282,6.0,14.0,94,0.00,,---,0.00,VWS V14.00,2013-03-31 09:50:00,
2013-03-31 04:55:00,33.9,32.4,29.81,WNW,290,2.0,14.0,94,0.00,,---,0.00,VWS V14.00,2013-03-31 09:55:00,
2013-03-31 05:00:00,33.8,32.3,29.81,West,276,7.0,8.0,94,0.00,,---,0.00,VWS V14.00,2013-03-31 10:00:00,
2013-03-31 05:05:00,33.8,32.0,29.81,WNW,285,3.0,13.0,93,0.00,,---,0.00,VWS V14.00,2013-03-31 10:05:00,
2013-03-31 05:10:00,33.8,32.0,29.81,NW,304,7.0,13.0,93,0.00,,---,0.00,VWS V14.00,2013-03-31 10:10:00,
2013-03-31 05:15:00,33.6,31.8,29.81,West,277,3.0,13.0,93,0.00,,---,0.00,VWS V14.00,2013-03-31 10:15:00,
2013-03-31 05:20:00,33.5,31.7,29.81,West,280,3.0,13.0,93,0.00,,---,0.00,VWS V14.00,2013-03-31 10:20:00,
2013-03-31 05:25:00,33.3,31.5,29.81,West,266,5.0,13.0,93,0.00,,---,0.00,VWS V14.00,2013-03-31 10:25:00,
2013-03-31 05:30:00,33.2,31.4,29.81,West,263,5.0,9.0,93,0.00,,---,0.00,VWS V14.00,2013-03-31 10:30:00,
2013-03-31 05:35:00,33.0,31.2,29.81,West,277,4.0,9.0,93,0.00,,---,0.00,VWS V14.00,2013-03-31 10:35:00,
2013-03-31 05:40:00,32.9,31.1,29.81,West,259,5.0,9.0,93,0.00,,---,0.00,VWS V14.00,2013-03-31 10:40:00,
2013-03-31 05:45:00,32.9,31.1,29.81,West,259,5.0,9.0,93,0.00,,---,0.00,VWS V14.00,2013-03-31 10:45:00,
2013-03-31 05:50:00,32.9,31.1,29.81,West,260,3.0,9.0,93,0.00,,---,0.00,VWS V14.00,2013-03-31 10:50:00,
2013-03-31 05:55:00,33.0,31.2,29.81,West,273,6.0,9.0,93,0.00,,---,0.00,VWS V14.00,2013-03-31 10:55:00,
2013-03-31 06:00:00,33.0,31.2,29.81,West,259,3.0,9.0,93,0.00,,---,0.00,VWS V14.00,2013-03-31 11:00:00,
2013-03-31 06:05:00,33.0,31.2,29.81,West,277,7.0,9.0,93,0.00,,---,0.00,VWS V14.00,2013-03-31 11:05:00,
2013-03-31 06:10:00,33.1,31.3,29.81,West,275,2.0,9.0,93,0.00,,---,0.00,VWS V14.00,2013-03-31 11:10:00,
2013-03-31 06:15:00,33.2,31.4,29.81,West,273,0.0,9.0,93,0.00,,---,0.00,VWS V14.00,2013-03-31 11:15:00,
2013-03-31 06:20:00,33.3,31.5,29.81,West,273,5.0,9.0,93,0.00,,---,0.00,VWS V14.00,2013-03-31 11:20:00,
2013-03-31 06:25:00,33.3,31.2,29.80,West,265,4.0,9.0,92,0.00,,---,0.00,VWS V14.00,2013-03-31 11:25:00,
2013-03-31 06:30:00,33.5,31.4,29.80,West,281,4.0,9.0,92,0.00,,---,0.00,VWS V14.00,2013-03-31 11:30:00,
2013-03-31 06:35:00,33.6,31.5,29.80,West,273,4.0,9.0,92,0.00,,---,0.00,VWS V14.00,2013-03-31 11:35:00,
2013-03-31 06:40:00,33.7,31.6,29.80,West,271,3.0,9.0,92,0.00,,---,0.00,VWS V14.00,2013-03-31 11:40:00,
2013-03-31 06:45:00,33.8,31.7,29.80,West,277,4.0,9.0,92,0.00,,---,0.00,VWS V14.00,2013-03-31 11:45:00,
2013-03-31 06:50:00,33.9,31.8,29.79,West,267,3.0,9.0,92,0.00,,---,0.00,VWS V14.00,2013-03-31 11:50:00,
2013-03-31 06:55:00,34.0,31.9,29.79,West,274,1.0,10.0,92,0.00,,---,0.00,VWS V14.00,2013-03-31 11:55:00,
2013-03-31 07:00:00,34.1,32.0,29.80,NW,304,3.0,5.0,92,0.00,,---,0.00,VWS V14.00,2013-03-31 12:00:00,
2013-03-31 07:05:00,34.2,32.1,29.80,West,281,3.0,8.0,92,0.00,,---,0.00,VWS V14.00,2013-03-31 12:05:00,
2013-03-31 07:10:00,34.3,32.2,29.80,NW,308,4.0,8.0,92,0.00,,---,0.00,VWS V14.00,2013-03-31 12:10:00,
2013-03-31 07:15:00,34.4,32.0,29.80,WNW,303,5.0,12.0,91,0.00,,---,0.00,VWS V14.00,2013-03-31 12:15:00,
2013-03-31 07:20:00,34.5,32.2,29.80,WNW,292,7.0,13.0,91,0.00,,---,0.00,VWS V14.00,2013-03-31 12:20:00,
2013-03-31 07:25:00,34.6,32.0,29.81,NW,306,5.0,14.0,90,0.00,,---,0.00,VWS V14.00,2013-03-31 12:25:00,
2013-03-31 07:30:00,34.8,32.2,29.81,NW,317,10.0,13.0,90,0.00,,---,0.00,VWS V14.00,2013-03-31 12:30:00,
2013-03-31 07:35:00,34.9,32.0,29.81,WNW,292,18.0,19.0,89,0.00,,---,0.00,VWS V14.00,2013-03-31 12:35:00,
2013-03-31 07:40:00,34.8,31.6,29.82,WNW,287,14.0,20.0,88,0.00,,---,0.00,VWS V14.00,2013-03-31 12:40:00,
2013-03-31 07:45:00,34.7,31.5,29.82,NW,311,5.0,20.0,88,0.00,,---,0.00,VWS V14.00,2013-03-31 12:45:00,
2013-03-31 07:50:00,34.5,31.3,29.82,NW,321,8.0,21.0,88,0.00,,---,0.00,VWS V14.00,2013-03-31 12:50:00,
2013-03-31 07:55:00,34.4,31.2,29.81,WNW,302,10.0,21.0,88,0.00,,---,0.00,VWS V14.00,2013-03-31 12:55:00,
2013-03-31 08:00:00,34.4,31.2,29.81,West,277,11.0,16.0,88,0.00,,---,0.00,VWS V14.00,2013-03-31 13:00:00,
2013-03-31 08:05:00,34.5,31.3,29.81,WNW,292,6.0,17.0,88,0.00,,---,0.00,VWS V14.00,2013-03-31 13:05:00,
2013-03-31 08:10:00,34.5,31.3,29.81,WNW,300,6.0,17.0,88,0.00,,---,0.00,VWS V14.00,2013-03-31 13:10:00,
2013-03-31 08:15:00,34.6,31.4,29.81,NW,313,8.0,17.0,88,0.00,,---,0.00,VWS V14.00,2013-03-31 13:15:00,
2013-03-31 08:20:00,34.7,31.5,29.81,NW,312,9.0,17.0,88,0.00,,---,0.00,VWS V14.00,2013-03-31 13:20:00,
2013-03-31 08:25:00,34.9,31.4,29.81,WNW,298,7.0,17.0,87,0.00,,---,0.00,VWS V14.00,2013-03-31 13:25:00,
2013-03-31 08:30:00,35.0,31.5,29.82,NW,305,7.0,15.0,87,0.00,,---,0.00,VWS V14.00,2013-03-31 13:30:00,
2013-03-31 08:35:00,35.0,31.5,29.82,WNW,282,11.0,19.0,87,0.00,,---,0.00,VWS V14.00,2013-03-31 13:35:00,
2013-03-31 08:40:00,35.1,31.6,29.82,NNW,337,12.0,19.0,87,0.00,,---,0.00,VWS V14.00,2013-03-31 13:40:00,
2013-03-31 08:45:00,35.1,31.6,29.82,NW,307,10.0,19.0,87,0.00,,---,0.00,VWS V14.00,2013-03-31 13:45:00,
2013-03-31 08:50:00,35.2,31.7,29.82,West,281,4.0,19.0,87,0.00,,---,0.00,VWS V14.00,2013-03-31 13:50:00,
2013-03-31 08:55:00,35.3,33.2,29.82,WNW,298,10.0,19.0,92,0.00,,---,0.00,VWS V14.00,2013-03-31 13:55:00,
2013-03-31 09:00:00,35.3,31.8,29.82,West,277,6.0,14.0,87,0.00,,---,0.00,VWS V14.00,2013-03-31 14:00:00,
2013-03-31 09:05:00,35.4,31.9,29.82,NW,313,9.0,20.0,87,0.00,,---,0.00,VWS V14.00,2013-03-31 14:05:00,
2013-03-31 09:10:00,35.5,32.0,29.82,WNW,295,10.0,20.0,87,0.00,,---,0.00,VWS V14.00,2013-03-31 14:10:00,
2013-03-31 09:15:00,35.4,31.6,29.82,NW,306,14.0,20.0,86,0.00,,---,0.00,VWS V14.00,2013-03-31 14:15:00,
2013-03-31 09:20:00,35.4,31.6,29.82,NW,305,6.0,20.0,86,0.00,,---,0.00,VWS V14.00,2013-03-31 14:20:00,
2013-03-31 09:25:00,35.4,31.6,29.83,WNW,284,7.0,20.0,86,0.00,,---,0.00,VWS V14.00,2013-03-31 14:25:00,
2013-03-31 09:30:00,35.5,31.5,29.82,WNW,296,15.0,21.0,85,0.00,,---,0.00,VWS V14.00,2013-03-31 14:30:00,
2013-03-31 09:35:00,35.5,31.5,29.83,NW,306,11.0,21.0,85,0.00,,---,0.00,VWS V14.00,2013-03-31 14:35:00,
2013-03-31 09:40:00,35.6,31.5,29.83,NNW,329,12.0,21.0,85,0.00,,---,0.00,VWS V14.00,2013-03-31 14:40:00,
2013-03-31 09:45:00,35.7,31.4,29.83,WNW,290,11.0,21.0,84,0.00,,---,0.00,VWS V14.00,2013-03-31 14:45:00,
2013-03-31 09:50:00,35.5,31.1,29.83,WNW,286,12.0,21.0,84,0.00,,---,0.00,VWS V14.00,2013-03-31 14:50:00,
2013-03-31 09:55:00,35.4,31.1,29.83,WNW,301,11.0,26.0,84,0.00,,---,0.00,VWS V14.00,2013-03-31 14:55:00,
2013-03-31 10:00:00,35.2,30.6,29.84,WNW,297,15.0,26.0,83,0.00,,---,0.00,VWS V14.00,2013-03-31 15:00:00,
2013-03-31 10:05:00,35.2,30.6,29.84,NW,319,7.0,26.0,83,0.00,,---,0.00,VWS V14.00,2013-03-31 15:05:00,
2013-03-31 10:10:00,35.4,30.2,29.84,NW,314,16.0,26.0,81,0.00,,---,0.00,VWS V14.00,2013-03-31 15:10:00,
2013-03-31 10:15:00,35.7,30.1,29.84,NNW,327,16.0,26.0,80,0.00,,---,0.00,VWS V14.00,2013-03-31 15:15:00,
2013-03-31 10:20:00,35.9,29.1,29.84,NNW,341,18.0,26.0,76,0.00,,---,0.00,VWS V14.00,2013-03-31 15:20:00,
2013-03-31 10:25:00,35.9,29.1,29.85,NW,313,23.0,26.0,76,0.00,,---,0.00,VWS V14.00,2013-03-31 15:25:00,
2013-03-31 10:30:00,36.0,28.9,29.85,NW,306,15.0,21.0,75,0.00,,---,0.00,VWS V14.00,2013-03-31 15:30:00,
2013-03-31 10:35:00,36.0,28.9,29.85,NW,309,18.0,21.0,75,0.00,,---,0.00,VWS V14.00,2013-03-31 15:35:00,
2013-03-31 10:40:00,35.9,28.8,29.85,NW,307,14.0,22.0,75,0.00,,---,0.00,VWS V14.00,2013-03-31 15:40:00,
2013-03-31 10:45:00,35.7,28.9,29.86,NNW,333,18.0,25.0,76,0.00,,---,0.00,VWS V14.00,2013-03-31 15:45:00,
2013-03-31 10:50:00,35.7,28.9,29.86,NW,306,8.0,25.0,76,0.00,,---,0.00,VWS V14.00,2013-03-31 15:50:00,
2013-03-31 10:55:00,35.8,28.3,29.86,WNW,302,10.0,25.0,74,0.00,,---,0.00,VWS V14.00,2013-03-31 15:55:00,
2013-03-31 11:00:00,36.0,28.9,29.86,NW,323,4.0,19.0,75,0.00,,---,0.00,VWS V14.00,2013-03-31 16:00:00,
2013-03-31 11:05:00,35.9,27.8,29.86,NNW,336,14.0,29.0,72,0.00,,---,0.01,VWS V14.00,2013-03-31 16:05:00,
2013-03-31 11:10:00,35.8,28.0,29.87,NNW,333,13.0,29.0,73,0.00,,---,0.01,VWS V14.00,2013-03-31 16:10:00,
2013-03-31 11:15:00,35.9,27.8,29.87,WNW,303,21.0,29.0,72,0.00,,---,0.01,VWS V14.00,2013-03-31 16:15:00,
2013-03-31 11:20:00,35.8,26.6,29.87,NW,308,25.0,31.0,69,0.00,,---,0.01,VWS V14.00,2013-03-31 16:20:00,
2013-03-31 11:25:00,35.9,26.4,29.87,NNW,334,9.0,31.0,68,0.00,,---,0.01,VWS V14.00,2013-03-31 16:25:00,
2013-03-31 11:30:00,36.1,26.2,29.87,WNW,296,13.0,18.0,67,0.00,,---,0.01,VWS V14.00,2013-03-31 16:30:00,
2013-03-31 11:35:00,35.8,25.2,29.87,WNW,293,11.0,21.0,65,0.00,,---,0.01,VWS V14.00,2013-03-31 16:35:00,
2013-03-31 11:40:00,35.8,25.6,29.87,NNW,343,18.0,21.0,66,0.00,,---,0.01,VWS V14.00,2013-03-31 16:40:00,
2013-03-31 11:45:00,35.9,26.4,29.87,NNW,327,25.0,25.0,68,0.00,,---,0.01,VWS V14.00,2013-03-31 16:45:00,
2013-03-31 11:50:00,35.5,25.6,29.88,NNW,336,22.0,25.0,67,0.00,,---,0.01,VWS V14.00,2013-03-31 16:50:00,
2013-03-31 11:55:00,35.4,25.5,29.88,NW,323,14.0,25.0,67,0.00,,---,0.01,VWS V14.00,2013-03-31 16:55:00,
2013-03-31 12:00:00,35.5,24.9,29.88,NW,323,11.0,20.0,65,0.00,,---,0.01,VWS V14.00,2013-03-31 17:00:00,
2013-03-31 12:05:00,35.7,25.5,29.88,WNW,302,22.0,23.0,66,0.00,,---,0.01,VWS V14.00,2013-03-31 17:05:00,
2013-03-31 12:10:00,35.9,25.3,29.88,NW,306,24.0,24.0,65,0.00,,---,0.01,VWS V14.00,2013-03-31 17:10:00,
2013-03-31 12:15:00,35.5,24.9,29.89,WNW,291,10.0,24.0,65,0.00,,---,0.01,VWS V14.00,2013-03-31 17:15:00,
2013-03-31 12:20:00,35.3,25.5,29.89,NW,307,12.0,24.0,67,0.00,,---,0.01,VWS V14.00,2013-03-31 17:20:00,
2013-03-31 12:25:00,34.8,25.0,29.89,WNW,295,13.0,26.0,67,0.00,,---,0.01,VWS V14.00,2013-03-31 17:25:00,
2013-03-31 12:30:00,35.0,25.5,29.89,NNW,336,22.0,23.0,68,0.00,,---,0.01,VWS V14.00,2013-03-31 17:30:00,
2013-03-31 12:35:00,34.6,24.4,29.89,WNW,294,17.0,25.0,66,0.00,,---,0.01,VWS V14.00,2013-03-31 17:35:00,
2013-03-31 12:40:00,34.8,26.0,29.89,NW,309,10.0,25.0,70,0.00,,---,0.01,VWS V14.00,2013-03-31 17:40:00,
2013-03-31 12:45:00,34.9,24.3,29.90,NW,321,13.0,25.0,65,0.00,,---,0.01,VWS V14.00,2013-03-31 17:45:00,
2013-03-31 12:50:00,34.6,24.4,29.90,WNW,298,15.0,25.0,66,0.00,,---,0.01,VWS V14.00,2013-03-31 17:50:00,
2013-03-31 12:55:00,34.7,23.8,29.90,WNW,300,12.0,25.0,64,0.00,,---,0.01,VWS V14.00,2013-03-31 17:55:00,
2013-03-31 13:00:00,34.8,23.9,29.90,NW,315,17.0,21.0,64,0.00,,---,0.01,VWS V14.00,2013-03-31 18:00:00,
2013-03-31 13:05:00,34.4,23.9,29.90,NW,315,13.0,22.0,65,0.00,,---,0.01,VWS V14.00,2013-03-31 18:05:00,
2013-03-31 13:10:00,34.2,24.0,29.90,NW,308,12.0,22.0,66,0.00,,---,0.01,VWS V14.00,2013-03-31 18:10:00,
2013-03-31 13:15:00,34.3,23.4,29.91,NW,315,10.0,24.0,64,0.00,,---,0.01,VWS V14.00,2013-03-31 18:15:00,
2013-03-31 13:20:00,34.3,23.8,29.91,WNW,298,10.0,24.0,65,0.00,,---,0.01,VWS V14.00,2013-03-31 18:20:00,
2013-03-31 13:25:00,34.1,22.8,29.92,WNW,299,10.0,24.0,63,0.00,,---,0.01,VWS V14.00,2013-03-31 18:25:00,
2013-03-31 13:30:00,34.1,22.5,29.92,NNW,332,17.0,21.0,62,0.00,,---,0.01,VWS V14.00,2013-03-31 18:30:00,
2013-03-31 13:35:00,34.2,23.3,29.92,NNW,330,10.0,21.0,64,0.00,,---,0.01,VWS V14.00,2013-03-31 18:35:00,
2013-03-31 13:40:00,34.1,21.3,29.92,WNW,294,10.0,21.0,59,0.00,,---,0.01,VWS V14.00,2013-03-31 18:40:00,
2013-03-31 13:45:00,34.2,21.0,29.92,WNW,298,18.0,21.0,58,0.00,,---,0.01,VWS V14.00,2013-03-31 18:45:00,
2013-03-31 13:50:00,34.1,20.5,29.92,NW,319,15.0,21.0,57,0.00,,---,0.01,VWS V14.00,2013-03-31 18:50:00,
2013-03-31 13:55:00,34.1,20.9,29.93,North,355,15.0,23.0,58,0.00,,---,0.01,VWS V14.00,2013-03-31 18:55:00,
2013-03-31 14:00:00,34.1,20.9,29.93,NW,304,18.0,22.0,58,0.00,,---,0.01,VWS V14.00,2013-03-31 19:00:00,
2013-03-31 14:05:00,34.3,23.0,29.93,NNW,332,10.0,22.0,63,0.00,,---,0.01,VWS V14.00,2013-03-31 19:05:00,
2013-03-31 14:10:00,34.1,20.9,29.93,NW,308,20.0,23.0,58,0.00,,---,0.01,VWS V14.00,2013-03-31 19:10:00,
2013-03-31 14:15:00,33.9,20.7,29.93,WNW,298,10.0,23.0,58,0.00,,---,0.01,VWS V14.00,2013-03-31 19:15:00,
2013-03-31 14:20:00,33.9,20.7,29.93,NW,318,16.0,23.0,58,0.00,,---,0.01,VWS V14.00,2013-03-31 19:20:00,
2013-03-31 14:25:00,33.7,20.1,29.93,NW,312,18.0,24.0,57,0.00,,---,0.01,VWS V14.00,2013-03-31 19:25:00,
2013-03-31 14:30:00,33.5,21.1,29.93,WNW,298,12.0,23.0,60,0.00,,---,0.01,VWS V14.00,2013-03-31 19:30:00,
2013-03-31 14:35:00,33.8,21.0,29.94,NW,309,10.0,23.0,59,0.00,,---,0.01,VWS V14.00,2013-03-31 19:35:00,
2013-03-31 14:40:00,33.9,20.7,29.93,NW,304,11.0,23.0,58,0.00,,---,0.01,VWS V14.00,2013-03-31 19:40:00,
2013-03-31 14:45:00,33.9,20.7,29.93,NNW,340,12.0,24.0,58,0.00,,---,0.01,VWS V14.00,2013-03-31 19:45:00,
2013-03-31 14:50:00,33.7,21.3,29.94,NW,317,12.0,24.0,60,0.00,,---,0.01,VWS V14.00,2013-03-31 19:50:00,
2013-03-31 14:55:00,33.7,20.9,29.94,NW,325,9.0,24.0,59,0.00,,---,0.01,VWS V14.00,2013-03-31 19:55:00,
2013-03-31 15:00:00,33.6,20.8,29.94,NW,305,14.0,22.0,59,0.00,,---,0.01,VWS V14.00,2013-03-31 20:00:00,
2013-03-31 15:05:00,33.5,19.9,29.94,NNW,344,16.0,23.0,57,0.00,,---,0.01,VWS V14.00,2013-03-31 20:05:00,
2013-03-31 15:10:00,33.7,22.1,29.94,NNW,331,14.0,23.0,62,0.00,,---,0.01,VWS V14.00,2013-03-31 20:10:00,
2013-03-31 15:15:00,33.9,21.9,29.94,NW,304,9.0,23.0,61,0.00,,---,0.01,VWS V14.00,2013-03-31 20:15:00,
2013-03-31 15:20:00,33.9,21.1,29.94,WNW,298,18.0,23.0,59,0.00,,---,0.01,VWS V14.00,2013-03-31 20:20:00,
2013-03-31 15:25:00,34.0,22.0,29.95,NNW,338,19.0,23.0,61,0.00,,---,0.01,VWS V14.00,2013-03-31 20:25:00,
2013-03-31 15:30:00,33.8,20.6,29.95,NNW,333,20.0,22.0,58,0.00,,---,0.01,VWS V14.00,2013-03-31 20:30:00,
2013-03-31 15:35:00,33.7,21.7,29.95,NW,311,14.0,22.0,61,0.00,,---,0.01,VWS V14.00,2013-03-31 20:35:00,
2013-03-31 15:40:00,33.7,22.1,29.95,NW,311,10.0,22.0,62,0.00,,---,0.01,VWS V14.00,2013-03-31 20:40:00,
2013-03-31 15:45:00,33.5,22.3,29.95,NW,316,21.0,22.0,63,0.00,,---,0.01,VWS V14.00,2013-03-31 20:45:00,
2013-03-31 15:50:00,33.5,23.4,29.95,NW,322,8.0,22.0,66,0.00,,---,0.01,VWS V14.00,2013-03-31 20:50:00,
2013-03-31 15:55:00,33.4,22.2,29.95,NW,307,7.0,24.0,63,0.00,,---,0.01,VWS V14.00,2013-03-31 20:55:00,
2013-03-31 16:00:00,33.4,22.2,29.95,NW,325,13.0,22.0,63,0.00,,---,0.01,VWS V14.00,2013-03-31 21:00:00,
2013-03-31 16:05:00,33.3,22.1,29.95,WNW,290,11.0,22.0,63,0.00,,---,0.01,VWS V14.00,2013-03-31 21:05:00,
2013-03-31 16:10:00,33.2,22.7,29.95,NNW,341,10.0,22.0,65,0.00,,---,0.01,VWS V14.00,2013-03-31 21:10:00,
2013-03-31 16:15:00,33.3,22.5,29.95,WNW,286,23.0,23.0,64,0.00,,---,0.01,VWS V14.00,2013-03-31 21:15:00,
2013-03-31 16:20:00,33.1,21.5,29.95,WNW,296,10.0,23.0,62,0.00,,---,0.01,VWS V14.00,2013-03-31 21:20:00,
2013-03-31 16:25:00,33.2,22.4,29.96,NW,319,10.0,23.0,64,0.00,,---,0.01,VWS V14.00,2013-03-31 21:25:00,
2013-03-31 16:30:00,33.1,21.5,29.96,NW,311,13.0,19.0,62,0.00,,---,0.01,VWS V14.00,2013-03-31 21:30:00,
2013-03-31 16:35:00,33.0,21.4,29.96,WNW,302,19.0,21.0,62,0.00,,---,0.01,VWS V14.00,2013-03-31 21:35:00,
2013-03-31 16:40:00,33.0,21.4,29.96,NW,304,21.0,21.0,62,0.00,,---,0.01,VWS V14.00,2013-03-31 21:40:00,
2013-03-31 16:45:00,33.0,20.6,29.96,NW,308,18.0,24.0,60,0.00,,---,0.01,VWS V14.00,2013-03-31 21:45:00,
2013-03-31 16:50:00,32.9,21.3,29.96,NW,315,14.0,24.0,62,0.00,,---,0.01,VWS V14.00,2013-03-31 21:50:00,
2013-03-31 16:55:00,32.8,20.9,29.96,WNW,296,7.0,24.0,61,0.00,,---,0.01,VWS V14.00,2013-03-31 21:55:00,
2013-03-31 17:00:00,32.8,20.9,29.96,NW,308,21.0,21.0,61,0.00,,---,0.01,VWS V14.00,2013-03-31 22:00:00,
2013-03-31 17:05:00,32.5,20.6,29.97,NNW,335,10.0,23.0,61,0.00,,---,0.01,VWS V14.00,2013-03-31 22:05:00,
2013-03-31 17:10:00,32.6,21.0,29.97,WNW,297,11.0,23.0,62,0.00,,---,0.01,VWS V14.00,2013-03-31 22:10:00,
2013-03-31 17:15:00,32.6,21.0,29.97,NW,322,11.0,23.0,62,0.00,,---,0.01,VWS V14.00,2013-03-31 22:15:00,
2013-03-31 17:20:00,32.5,21.3,29.97,NW,311,7.0,23.0,63,0.00,,---,0.01,VWS V14.00,2013-03-31 22:20:00,
2013-03-31 17:25:00,32.6,21.8,29.97,NW,304,11.0,23.0,64,0.00,,---,0.01,VWS V14.00,2013-03-31 22:25:00,
2013-03-31 17:30:00,32.4,20.9,29.97,WNW,302,17.0,21.0,62,0.00,,---,0.01,VWS V14.00,2013-03-31 22:30:00,
2013-03-31 17:35:00,32.4,20.5,29.97,WNW,290,13.0,21.0,61,0.00,,---,0.01,VWS V14.00,2013-03-31 22:35:00,
2013-03-31 17:40:00,32.4,21.2,29.98,NW,317,17.0,21.0,63,0.00,,---,0.01,VWS V14.00,2013-03-31 22:40:00,
2013-03-31 17:45:00,32.1,21.3,29.98,NW,319,16.0,21.0,64,0.00,,---,0.01,VWS V14.00,2013-03-31 22:45:00,
2013-03-31 17:50:00,32.0,20.9,29.98,NW,323,7.0,21.0,63,0.00,,---,0.01,VWS V14.00,2013-03-31 22:50:00,
2013-03-31 17:55:00,31.9,20.4,29.98,NW,326,15.0,23.0,62,0.00,,---,0.01,VWS V14.00,2013-03-31 22:55:00,
2013-03-31 18:00:00,31.6,20.5,29.98,NW,319,10.0,22.0,63,0.00,,---,0.01,VWS V14.00,2013-03-31 23:00:00,
2013-03-31 18:05:00,31.6,20.8,29.99,NNW,329,16.0,22.0,64,0.00,,---,0.01,VWS V14.00,2013-03-31 23:05:00,
2013-03-31 18:10:00,31.6,20.8,29.99,NNW,329,11.0,22.0,64,0.00,,---,0.01,VWS V14.00,2013-03-31 23:10:00,
2013-03-31 18:30:00,31.3,20.9,30.00,NW,315,12.0,23.0,65,0.00,,---,0.01,VWS V14.00,2013-03-31 23:30:00,
2013-03-31 19:00:00,30.6,19.9,30.01,NW,315,11.0,20.0,64,0.00,,---,0.01,VWS V14.00,2013-04-01 00:00:00,
2013-03-31 19:30:00,29.3,18.6,30.02,NW,315,11.0,23.0,64,0.00,,---,0.01,VWS V14.00,2013-04-01 00:30:00,
2013-03-31 20:00:00,28.0,17.8,30.03,NW,315,11.0,19.0,65,0.00,,---,0.01,VWS V14.00,2013-04-01 01:00:00,
2013-03-31 20:30:00,26.7,17.6,30.05,NW,315,11.0,25.0,68,0.00,,---,0.01,VWS V14.00,2013-04-01 01:30:00,
2013-03-31 21:00:00,25.8,17.7,30.07,NW,315,11.0,23.0,71,0.00,,---,0.01,VWS V14.00,2013-04-01 02:00:00,
2013-03-31 21:30:00,24.9,17.2,30.08,NW,315,11.0,22.0,72,0.00,,---,0.01,VWS V14.00,2013-04-01 02:30:00,
2013-03-31 22:00:00,24.1,17.0,30.11,NW,315,10.0,23.0,74,0.00,,---,0.01,VWS V14.00,2013-04-01 03:00:00,
2013-03-31 22:19:00,23.6,16.2,30.12,NW,310,5.0,10.0,73,0.00,,---,0.01,VWS V14.00,2013-04-01 03:19:00,
2013-03-31 22:24:00,23.5,16.5,30.12,NW,318,8.0,13.0,74,0.00,,---,0.01,VWS V14.00,2013-04-01 03:24:00,
2013-03-31 22:29:00,23.5,16.1,30.12,NW,314,5.0,12.0,73,0.00,,---,0.01,VWS V14.00,2013-04-01 03:29:00,
2013-03-31 22:30:00,23.5,16.1,30.12,WNW,302,10.0,18.0,73,0.00,,---,0.01,VWS V14.00,2013-04-01 03:30:00,
2013-03-31 22:34:00,23.4,16.0,30.12,NW,307,11.0,17.0,73,0.00,,---,0.01,VWS V14.00,2013-04-01 03:34:00,
2013-03-31 22:39:00,23.3,15.9,30.13,NW,304,5.0,17.0,73,0.00,,---,0.01,VWS V14.00,2013-04-01 03:39:00,
2013-03-31 22:44:00,23.2,15.8,30.12,NNW,338,8.0,17.0,73,0.00,,---,0.01,VWS V14.00,2013-04-01 03:44:00,
2013-03-31 22:49:00,23.1,15.8,30.13,WNW,291,8.0,18.0,73,0.00,,---,0.01,VWS V14.00,2013-04-01 03:49:00,
2013-03-31 22:54:00,23.0,15.6,30.13,NW,308,7.0,18.0,73,0.00,,---,0.01,VWS V14.00,2013-04-01 03:54:00,
2013-03-31 22:59:00,22.9,15.6,30.13,NNW,329,10.0,22.0,73,0.00,,---,0.01,VWS V14.00,2013-04-01 03:59:00,
2013-03-31 23:00:00,22.9,15.6,30.13,NW,306,15.0,22.0,73,0.00,,---,0.01,VWS V14.00,2013-04-01 04:00:00,
2013-03-31 23:05:00,22.9,15.6,30.13,NW,320,7.0,22.0,73,0.00,,---,0.01,VWS V14.00,2013-04-01 04:05:00,
2013-03-31 23:10:00,22.7,15.7,30.13,NW,326,7.0,22.0,74,0.00,,---,0.01,VWS V14.00,2013-04-01 04:10:00,
2013-03-31 23:12:00,22.7,15.7,30.13,NNW,331,5.0,22.0,74,0.00,,---,0.01,VWS V14.00,2013-04-01 04:12:00,
2013-03-31 23:17:00,22.5,15.5,30.13,NW,305,11.0,22.0,74,0.00,,---,0.01,VWS V14.00,2013-04-01 04:17:00,
2013-03-31 23:22:00,22.4,15.7,30.13,NNW,337,7.0,22.0,75,0.00,,---,0.01,VWS V14.00,2013-04-01 04:22:00,
2013-03-31 23:27:00,22.3,15.6,30.13,WNW,294,6.0,9.0,75,0.00,,---,0.01,VWS V14.00,2013-04-01 04:27:00,
2013-03-31 23:30:00,22.3,15.6,30.13,NW,319,9.0,22.0,75,0.00,,---,0.01,VWS V14.00,2013-04-01 04:30:00,
2013-03-31 23:32:00,22.2,15.5,30.13,NW,308,5.0,13.0,75,0.00,,---,0.01,VWS V14.00,2013-04-01 04:32:00,
2013-03-31 23:37:00,22.1,15.7,30.14,NW,320,7.0,18.0,76,0.00,,---,0.01,VWS V14.00,2013-04-01 04:37:00,
2013-03-31 23:42:00,22.0,15.6,30.14,NW,323,11.0,18.0,76,0.00,,---,0.01,VWS V14.00,2013-04-01 04:42:00,
2013-03-31 23:47:00,21.9,15.5,30.14,WNW,300,6.0,18.0,76,0.00,,---,0.01,VWS V14.00,2013-04-01 04:47:00,
2013-03-31 23:52:00,21.8,15.4,30.14,WNW,298,6.0,18.0,76,0.00,,---,0.01,VWS V14.00,2013-04-01 04:52:00,
2013-03-31 23:57:00,21.8,15.4,30.14,WNW,290,10.0,12.0,76,0.00,,---,0.00,VWS V14.00,2013-04-01 04:57:00,